createdAt,value
2022-12-15T00:00:45.325Z,11.60
2022-12-15T00:03:32.110Z,11.60
2022-12-15T00:06:20.229Z,11.60
2022-12-15T00:09:11.170Z,11.60
2022-12-15T00:12:00.149Z,11.60
2022-12-15T00:14:46.850Z,11.60
2022-12-15T00:17:33.388Z,11.60
2022-12-15T00:20:19.866Z,11.50
2022-12-15T00:23:06.542Z,11.50
2022-12-15T00:25:53.185Z,11.50
2022-12-15T00:28:40.478Z,11.60
2022-12-15T00:31:27.259Z,11.50
2022-12-15T00:34:14.052Z,11.50
2022-12-15T00:37:00.339Z,11.50
2022-12-15T00:39:28.645Z,11.60
2022-12-15T00:41:56.605Z,11.60
2022-12-15T00:44:24.740Z,11.60
2022-12-15T00:46:55.758Z,11.60
2022-12-15T00:49:44.039Z,11.60
2022-12-15T00:52:33.044Z,11.60
2022-12-15T00:55:20.439Z,11.60
2022-12-15T00:58:07.164Z,11.60
2022-12-15T01:00:53.381Z,11.50
2022-12-15T01:03:42.778Z,11.50
2022-12-15T01:06:32.608Z,11.60
2022-12-15T01:09:21.068Z,11.60
2022-12-15T01:12:07.727Z,11.60
2022-12-15T01:14:55.447Z,11.60
2022-12-15T01:17:41.980Z,11.60
2022-12-15T01:20:34.790Z,11.60
2022-12-15T01:23:02.915Z,11.60
2022-12-15T01:25:30.902Z,11.50
2022-12-15T01:27:59.817Z,11.60
2022-12-15T01:30:28.046Z,11.50
2022-12-15T01:32:55.955Z,11.50
2022-12-15T01:35:24.061Z,11.40
2022-12-15T01:37:52.619Z,11.30
2022-12-15T01:40:40.263Z,11.30
2022-12-15T01:43:20.974Z,11.20
2022-12-15T01:46:02.864Z,11.20
2022-12-15T01:48:52.211Z,11.20
2022-12-15T01:51:32.783Z,11.20
2022-12-15T01:54:04.983Z,11.10
2022-12-15T01:56:38.281Z,11.10
2022-12-15T01:59:09.777Z,11.10
2022-12-15T02:01:38.430Z,11.10
2022-12-15T02:04:09.120Z,11.10
2022-12-15T02:06:37.420Z,11.10
2022-12-15T02:09:06.242Z,11.10
2022-12-15T02:11:43.049Z,11.10
2022-12-15T02:14:13.883Z,11.10
2022-12-15T02:17:02.596Z,11.10
2022-12-15T02:19:40.079Z,11.10
2022-12-15T02:22:23.094Z,11.10
2022-12-15T02:25:16.617Z,11.00
2022-12-15T02:27:59.357Z,11.00
2022-12-15T02:31:13.174Z,11.00
2022-12-15T02:33:51.129Z,10.90
2022-12-15T02:36:37.340Z,10.90
2022-12-15T02:39:06.035Z,10.90
2022-12-15T02:41:37.200Z,10.90
2022-12-15T02:44:23.759Z,10.90
2022-12-15T02:47:22.182Z,10.90
2022-12-15T02:50:00.596Z,10.80
2022-12-15T02:52:52.446Z,10.80
2022-12-15T02:55:34.894Z,10.60
2022-12-15T02:58:08.617Z,10.50
2022-12-15T03:00:45.028Z,10.40
2022-12-15T03:03:20.361Z,10.30
2022-12-15T03:05:55.248Z,10.20
2022-12-15T03:08:24.275Z,10.20
2022-12-15T03:10:55.014Z,10.10
2022-12-15T03:13:24.465Z,10.10
2022-12-15T03:16:11.989Z,10.10
2022-12-15T03:18:40.747Z,10.00
2022-12-15T03:21:09.143Z,10.00
2022-12-15T03:23:37.197Z,10.00
2022-12-15T03:26:06.662Z,10.00
2022-12-15T03:28:34.840Z,10.00
2022-12-15T03:31:03.035Z,9.90
2022-12-15T03:33:34.056Z,9.90
2022-12-15T03:36:02.549Z,10.00
2022-12-15T03:38:31.088Z,10.20
2022-12-15T03:40:59.354Z,10.20
2022-12-15T03:43:27.749Z,10.20
2022-12-15T03:45:55.886Z,10.10
2022-12-15T03:48:24.062Z,10.20
2022-12-15T03:50:51.980Z,10.20
2022-12-15T03:53:20.574Z,10.20
2022-12-15T03:55:48.630Z,10.10
2022-12-15T03:58:16.703Z,10.00
2022-12-15T04:00:45.118Z,9.90
2022-12-15T04:03:13.428Z,9.90
2022-12-15T04:05:41.756Z,10.00
2022-12-15T04:08:09.749Z,10.00
2022-12-15T04:10:38.251Z,10.10
2022-12-15T04:13:10.049Z,10.00
2022-12-15T04:15:39.486Z,9.90
2022-12-15T04:18:12.895Z,9.80
2022-12-15T04:20:41.266Z,9.70
2022-12-15T04:23:09.703Z,9.80
2022-12-15T04:25:56.651Z,9.90
2022-12-15T04:28:43.196Z,9.70
2022-12-15T04:31:46.407Z,9.70
2022-12-15T04:34:39.587Z,9.70
2022-12-15T04:37:30.230Z,9.60
2022-12-15T04:40:18.945Z,9.60
2022-12-15T04:43:06.503Z,9.50
2022-12-15T04:45:54.116Z,9.40
2022-12-15T04:48:40.541Z,9.30
2022-12-15T04:51:26.907Z,9.40
2022-12-15T04:54:13.725Z,9.30
2022-12-15T04:57:01.042Z,9.30
2022-12-15T04:59:47.411Z,9.30
2022-12-15T05:02:35.082Z,9.30
2022-12-15T05:05:21.851Z,9.20
2022-12-15T05:08:08.458Z,9.10
2022-12-15T05:10:55.296Z,9.10
2022-12-15T05:13:42.697Z,9.10
2022-12-15T05:16:29.494Z,9.10
2022-12-15T05:19:16.817Z,9.10
2022-12-15T05:22:03.618Z,9.00
2022-12-15T05:24:50.789Z,9.00
2022-12-15T05:27:38.077Z,9.20
2022-12-15T05:30:25.355Z,9.20
2022-12-15T05:32:53.401Z,9.00
2022-12-15T05:35:22.100Z,9.00
2022-12-15T05:37:50.783Z,8.90
2022-12-15T05:40:19.243Z,8.90
2022-12-15T05:42:50.048Z,8.90
2022-12-15T05:45:18.346Z,8.90
2022-12-15T05:47:52.531Z,8.90
2022-12-15T05:50:21.216Z,8.80
2022-12-15T05:52:51.912Z,8.80
2022-12-15T05:55:20.517Z,8.70
2022-12-15T05:57:56.268Z,8.60
2022-12-15T06:00:24.704Z,8.50
2022-12-15T06:02:53.120Z,8.50
2022-12-15T06:05:21.233Z,8.60
2022-12-15T06:07:49.305Z,8.60
2022-12-15T06:10:17.275Z,8.60
2022-12-15T06:12:45.389Z,8.50
2022-12-15T06:15:13.783Z,8.30
2022-12-15T06:17:41.828Z,8.30
2022-12-15T06:20:10.219Z,8.30
2022-12-15T06:22:38.612Z,8.40
2022-12-15T06:25:07.325Z,8.30
2022-12-15T06:27:37.873Z,8.40
2022-12-15T06:30:07.073Z,8.40
2022-12-15T06:32:36.410Z,8.50
2022-12-15T06:35:05.083Z,8.50
2022-12-15T06:37:33.113Z,8.50
2022-12-15T06:40:01.167Z,8.60
2022-12-15T06:42:30.280Z,8.70
2022-12-15T06:44:59.212Z,8.70
2022-12-15T06:47:27.302Z,8.70
2022-12-15T06:49:55.964Z,8.70
2022-12-15T06:52:24.923Z,8.80
2022-12-15T06:54:53.499Z,8.80
2022-12-15T06:57:22.175Z,8.80
2022-12-15T06:59:50.896Z,8.90
2022-12-15T07:02:23.660Z,8.90
2022-12-15T07:04:55.096Z,8.90
2022-12-15T07:07:23.625Z,8.90
2022-12-15T07:09:52.277Z,8.90
2022-12-15T07:12:20.571Z,8.90
2022-12-15T07:14:53.390Z,8.90
2022-12-15T07:17:22.257Z,9.00
2022-12-15T07:19:51.235Z,9.00
2022-12-15T07:22:21.056Z,9.10
2022-12-15T07:24:49.034Z,9.20
2022-12-15T07:27:18.216Z,9.20
2022-12-15T07:29:46.662Z,9.10
2022-12-15T07:32:15.788Z,9.10
2022-12-15T07:34:43.724Z,9.10
2022-12-15T07:37:13.683Z,9.10
2022-12-15T07:39:41.708Z,9.10
2022-12-15T07:42:10.401Z,9.10
2022-12-15T07:44:38.613Z,9.10
2022-12-15T07:47:07.202Z,9.10
2022-12-15T07:49:35.224Z,8.80
2022-12-15T07:52:03.374Z,8.60
2022-12-15T07:54:31.470Z,8.60
2022-12-15T07:57:00.312Z,8.60
2022-12-15T07:59:28.972Z,8.80
2022-12-15T08:01:58.069Z,8.90
2022-12-15T08:04:27.300Z,9.10
2022-12-15T08:06:55.453Z,9.10
2022-12-15T08:09:24.031Z,9.40
2022-12-15T08:11:52.632Z,9.70
2022-12-15T08:14:21.239Z,9.90
2022-12-15T08:16:50.044Z,9.80
2022-12-15T08:19:19.309Z,9.60
2022-12-15T08:21:47.930Z,9.50
2022-12-15T08:24:17.383Z,9.50
2022-12-15T08:26:49.814Z,9.50
2022-12-15T08:32:08.310Z,9.60
2022-12-15T08:34:36.599Z,9.50
2022-12-15T08:37:04.678Z,9.50
2022-12-15T08:39:33.241Z,9.50
2022-12-15T08:42:01.413Z,9.50
2022-12-15T08:44:29.761Z,9.70
2022-12-15T08:46:58.206Z,9.80
2022-12-15T08:49:26.548Z,9.90
2022-12-15T08:51:55.655Z,10.10
2022-12-15T08:54:23.837Z,10.30
2022-12-15T08:56:51.817Z,10.40
2022-12-15T08:59:20.241Z,10.70
2022-12-15T09:01:48.789Z,10.90
2022-12-15T09:04:17.309Z,11.40
2022-12-15T09:06:50.491Z,11.40
2022-12-15T09:09:20.077Z,11.70
2022-12-15T09:11:49.155Z,11.90
2022-12-15T09:14:19.607Z,12.00
2022-12-15T09:16:50.696Z,12.20
2022-12-15T09:19:19.727Z,12.60
2022-12-15T09:21:48.378Z,12.80
2022-12-15T09:24:25.944Z,13.30
2022-12-15T09:26:57.433Z,13.00
2022-12-15T09:29:26.039Z,13.20
2022-12-15T09:31:54.226Z,13.90
2022-12-15T09:34:22.641Z,13.80
2022-12-15T09:36:50.747Z,13.70
2022-12-15T09:39:18.854Z,13.20
2022-12-15T09:42:05.875Z,13.40
2022-12-15T09:44:34.729Z,13.70
2022-12-15T09:47:28.795Z,14.30
2022-12-15T09:50:03.383Z,14.70
2022-12-15T09:52:40.631Z,15.60
2022-12-15T09:55:24.383Z,16.30
2022-12-15T09:58:10.898Z,16.60
2022-12-15T10:00:55.346Z,16.10
2022-12-15T10:03:39.122Z,15.60
2022-12-15T10:06:21.268Z,15.60
2022-12-15T10:08:58.590Z,15.50
2022-12-15T10:14:51.257Z,15.80
2022-12-15T10:17:28.107Z,15.80
2022-12-15T10:20:32.568Z,15.60
2022-12-15T10:23:11.359Z,15.50
2022-12-15T10:25:40.184Z,15.40
2022-12-15T10:28:18.425Z,15.20
2022-12-15T10:30:53.144Z,15.10
2022-12-15T10:33:25.551Z,15.00
2022-12-15T10:35:55.168Z,14.90
2022-12-15T10:38:42.634Z,14.80
2022-12-15T10:41:22.227Z,14.50
2022-12-15T10:43:53.130Z,14.60
2022-12-15T10:46:26.269Z,14.50
2022-12-15T10:49:21.453Z,14.60
2022-12-15T10:51:56.250Z,14.70
2022-12-15T10:54:27.052Z,14.90
2022-12-15T10:56:58.747Z,14.90
2022-12-15T10:59:34.431Z,15.10
2022-12-15T11:02:23.968Z,15.20
2022-12-15T11:04:59.822Z,15.10
2022-12-15T11:07:40.033Z,15.00
2022-12-15T11:10:52.139Z,14.80
2022-12-15T11:13:22.692Z,14.70
2022-12-15T11:15:53.352Z,14.70
2022-12-15T11:18:55.860Z,14.70
2022-12-15T11:21:38.683Z,14.60
2022-12-15T11:24:18.562Z,14.60
2022-12-15T11:26:51.516Z,14.50
2022-12-15T11:29:39.106Z,14.60
2022-12-15T11:32:09.288Z,14.60
2022-12-15T11:34:44.398Z,14.60
2022-12-15T11:40:30.888Z,14.40
2022-12-15T11:43:41.939Z,14.40
2022-12-15T11:46:21.520Z,14.30
2022-12-15T11:49:17.204Z,14.30
2022-12-15T11:52:06.506Z,14.30
2022-12-15T11:54:40.694Z,14.10
2022-12-15T11:57:23.626Z,14.00
2022-12-15T12:00:10.341Z,13.90
2022-12-15T12:02:57.567Z,13.80
2022-12-15T12:05:37.310Z,13.60
2022-12-15T12:08:05.385Z,13.60
2022-12-15T12:10:53.463Z,13.50
2022-12-15T12:13:27.402Z,13.40
2022-12-15T12:15:55.986Z,13.40
2022-12-15T12:18:29.621Z,13.40
2022-12-15T12:21:15.556Z,13.30
2022-12-15T12:23:52.480Z,13.30
2022-12-15T12:26:27.315Z,13.30
2022-12-15T12:29:07.406Z,13.30
2022-12-15T12:31:47.655Z,13.30
2022-12-15T12:34:39.120Z,13.30
2022-12-15T12:37:22.876Z,13.30
2022-12-15T12:39:52.442Z,13.30
2022-12-15T12:42:35.907Z,13.20
2022-12-15T12:45:04.686Z,13.20
2022-12-15T12:47:44.729Z,13.20
2022-12-15T12:50:25.224Z,13.10
2022-12-15T12:52:59.289Z,13.10
2022-12-15T12:55:37.075Z,13.20
2022-12-15T12:58:32.207Z,13.20
2022-12-15T13:01:06.478Z,13.20
2022-12-15T13:03:39.951Z,13.20
2022-12-15T13:06:21.215Z,13.20
2022-12-15T13:08:55.892Z,13.10
2022-12-15T13:12:00.827Z,13.10
2022-12-15T13:14:48.243Z,13.10
2022-12-15T13:17:31.687Z,13.20
2022-12-15T13:20:02.512Z,13.10
2022-12-15T13:22:33.958Z,13.10
2022-12-15T13:25:03.532Z,13.10
2022-12-15T13:27:40.746Z,13.10
2022-12-15T13:30:08.857Z,13.10
2022-12-15T13:32:51.773Z,13.10
2022-12-15T13:35:29.833Z,13.10
2022-12-15T13:38:07.455Z,13.20
2022-12-15T13:40:35.790Z,13.20
2022-12-15T13:43:04.472Z,13.30
2022-12-15T13:45:39.831Z,13.30
2022-12-15T13:48:24.239Z,13.40
2022-12-15T13:51:03.422Z,13.30
2022-12-15T13:53:39.016Z,13.40
2022-12-15T13:56:36.645Z,13.40
2022-12-15T13:59:14.246Z,13.40
2022-12-15T14:01:52.570Z,13.50
2022-12-15T14:04:21.759Z,13.50
2022-12-15T14:06:56.637Z,13.50
2022-12-15T14:09:41.607Z,13.50
2022-12-15T14:12:14.055Z,13.50
2022-12-15T14:14:50.017Z,13.50
2022-12-15T14:17:19.724Z,13.40
2022-12-15T14:22:43.148Z,13.40
2022-12-15T14:25:29.459Z,13.40
2022-12-15T14:27:57.638Z,13.40
2022-12-15T14:30:33.238Z,13.40
2022-12-15T14:33:11.075Z,13.40
2022-12-15T14:35:49.478Z,13.40
2022-12-15T14:38:21.492Z,13.40
2022-12-15T14:40:52.404Z,13.40
2022-12-15T14:43:35.408Z,13.40
2022-12-15T14:46:12.050Z,13.40
2022-12-15T14:48:45.350Z,13.40
2022-12-15T14:51:14.990Z,13.40
2022-12-15T14:53:49.671Z,13.40
2022-12-15T14:59:21.229Z,13.40
2022-12-15T15:01:59.602Z,13.40
2022-12-15T15:03:09.675Z,15.70
2022-12-15T15:03:09.887Z,14.50
2022-12-15T15:03:15.775Z,13.50
2022-12-15T15:04:36.343Z,13.30
2022-12-15T15:07:17.632Z,13.30
2022-12-15T15:09:47.042Z,13.30
2022-12-15T15:12:21.086Z,13.30
2022-12-15T15:15:00.894Z,13.30
2022-12-15T15:17:50.077Z,13.20
2022-12-15T15:20:30.696Z,13.30
2022-12-15T15:23:07.611Z,13.30
2022-12-15T15:25:41.662Z,13.20
2022-12-15T15:28:19.175Z,13.30
2022-12-15T15:30:56.583Z,13.30
2022-12-15T15:33:26.117Z,13.30
2022-12-15T15:35:58.616Z,13.30
2022-12-15T15:38:35.049Z,13.30
2022-12-15T15:41:23.462Z,13.20
2022-12-15T15:43:52.258Z,13.10
2022-12-15T15:46:27.985Z,13.00
2022-12-15T15:49:02.275Z,13.10
2022-12-15T15:51:32.303Z,13.10
2022-12-15T15:54:12.787Z,13.10
2022-12-15T15:56:41.685Z,13.10
2022-12-15T15:59:16.659Z,13.10
2022-12-15T16:01:46.991Z,13.10
2022-12-15T16:04:15.081Z,13.10
2022-12-15T16:06:47.352Z,13.10
2022-12-15T16:09:17.211Z,13.00
2022-12-15T16:11:46.607Z,13.00
2022-12-15T16:14:17.568Z,13.00
2022-12-15T16:16:45.782Z,13.00
2022-12-15T16:19:14.355Z,13.10
2022-12-15T16:21:43.866Z,13.10
2022-12-15T16:24:17.785Z,13.10
2022-12-15T16:26:49.740Z,13.00
2022-12-15T16:29:21.174Z,13.00
2022-12-15T16:31:52.929Z,13.00
2022-12-15T16:34:21.903Z,12.90
2022-12-15T16:36:50.551Z,12.90
2022-12-15T16:39:28.194Z,12.80
2022-12-15T16:41:57.888Z,12.80
2022-12-15T16:44:27.632Z,12.80
2022-12-15T16:46:56.207Z,12.90
2022-12-15T16:49:25.103Z,12.90
2022-12-15T16:51:54.444Z,12.80
2022-12-15T16:54:28.760Z,12.70
2022-12-15T16:56:58.697Z,12.70
2022-12-15T16:59:36.067Z,12.70
2022-12-15T17:02:27.231Z,12.80
2022-12-15T17:04:56.325Z,12.80
2022-12-15T17:07:27.832Z,12.80
2022-12-15T17:09:59.891Z,12.90
2022-12-15T17:12:28.595Z,12.80
2022-12-15T17:14:59.683Z,12.80
2022-12-15T17:17:29.712Z,12.80
2022-12-15T17:20:28.035Z,12.70
2022-12-15T17:22:49.914Z,12.80
2022-12-15T17:25:51.956Z,12.70
2022-12-15T17:28:17.073Z,12.70
2022-12-15T17:30:46.195Z,12.70
2022-12-15T17:33:25.696Z,12.70
2022-12-15T17:35:56.636Z,12.60
2022-12-15T17:38:52.418Z,12.60
2022-12-15T17:41:50.193Z,12.60
2022-12-15T17:44:36.679Z,12.70
2022-12-15T17:47:08.062Z,12.70
2022-12-15T17:49:37.958Z,12.60
2022-12-15T17:52:29.415Z,12.70
2022-12-15T17:54:58.000Z,12.70
2022-12-15T17:57:26.390Z,12.70
2022-12-15T17:59:54.323Z,12.70
2022-12-15T18:02:23.088Z,12.70
2022-12-15T18:04:52.055Z,12.70
2022-12-15T18:07:23.071Z,12.70
2022-12-15T18:09:52.515Z,12.70
2022-12-15T18:12:26.049Z,12.70
2022-12-15T18:14:56.384Z,12.80
2022-12-15T18:17:24.936Z,12.70
2022-12-15T18:19:53.077Z,12.70
2022-12-15T18:22:24.093Z,12.70
2022-12-15T18:24:53.906Z,12.70
2022-12-15T18:27:28.179Z,12.70
2022-12-15T18:29:57.183Z,12.80
2022-12-15T18:32:27.217Z,12.90
2022-12-15T18:34:56.372Z,12.90
2022-12-15T18:37:25.314Z,12.90
2022-12-15T18:39:56.230Z,12.80
2022-12-15T18:42:31.471Z,12.80
2022-12-15T18:45:00.637Z,12.80
2022-12-15T18:47:28.702Z,12.90
2022-12-15T18:49:57.247Z,12.80
2022-12-15T18:52:30.066Z,12.90
2022-12-15T18:55:01.999Z,12.90
2022-12-15T18:57:36.109Z,12.90
2022-12-15T19:00:19.678Z,12.90
2022-12-15T19:02:48.864Z,12.90
2022-12-15T19:05:29.488Z,12.90
2022-12-15T19:08:28.308Z,12.80
2022-12-15T19:11:02.224Z,12.80
2022-12-15T19:13:36.396Z,12.80
2022-12-15T19:16:06.611Z,12.80
2022-12-15T19:18:53.536Z,12.80
2022-12-15T19:21:42.093Z,12.80
2022-12-15T19:24:15.821Z,12.80
2022-12-15T19:26:44.472Z,12.80
2022-12-15T19:29:22.082Z,12.80
2022-12-15T19:31:51.489Z,12.80
2022-12-15T19:34:20.093Z,12.80
2022-12-15T19:36:48.144Z,12.80
2022-12-15T19:39:42.377Z,12.80
2022-12-15T19:42:24.129Z,12.90
2022-12-15T19:44:52.581Z,12.90
2022-12-15T19:47:20.554Z,12.80
2022-12-15T19:49:48.665Z,12.80
2022-12-15T19:52:18.513Z,12.70
2022-12-15T19:54:50.018Z,12.70
2022-12-15T19:57:19.522Z,12.70
2022-12-15T19:59:47.791Z,12.70
2022-12-15T20:02:18.084Z,12.60
2022-12-15T20:04:47.838Z,12.70
2022-12-15T20:07:27.423Z,12.80
2022-12-15T20:09:58.133Z,12.80
2022-12-15T20:12:27.447Z,12.80
2022-12-15T20:14:55.549Z,12.90
2022-12-15T20:17:23.640Z,12.90
2022-12-15T20:19:52.474Z,12.90
2022-12-15T20:22:20.807Z,12.80
2022-12-15T20:24:48.916Z,12.90
2022-12-15T20:27:18.374Z,12.90
2022-12-15T20:29:46.898Z,12.80
2022-12-15T20:32:20.490Z,12.80
2022-12-15T20:34:48.845Z,12.70
2022-12-15T20:37:25.545Z,12.80
2022-12-15T20:39:57.377Z,12.80
2022-12-15T20:42:26.668Z,12.70
2022-12-15T20:44:55.036Z,12.80
2022-12-15T20:47:26.580Z,12.70
2022-12-15T20:49:55.523Z,12.80
2022-12-15T20:52:26.637Z,12.70
2022-12-15T20:54:55.001Z,13.00
2022-12-15T20:57:23.567Z,12.80
2022-12-15T20:59:52.529Z,12.70
2022-12-15T21:02:33.015Z,12.70
2022-12-15T21:05:03.500Z,12.70
2022-12-15T21:07:32.419Z,12.70
2022-12-15T21:10:02.050Z,12.70
2022-12-15T21:12:57.442Z,12.70
2022-12-15T21:15:25.447Z,12.70
2022-12-15T21:18:16.974Z,12.70
2022-12-15T21:20:43.416Z,12.70
2022-12-15T21:23:24.195Z,12.80
2022-12-15T21:25:52.728Z,12.70
2022-12-15T21:28:23.475Z,12.70
2022-12-15T21:30:52.679Z,12.60
2022-12-15T21:33:21.404Z,12.60
2022-12-15T21:35:49.473Z,12.60
2022-12-15T21:38:30.459Z,12.60
2022-12-15T21:41:02.490Z,12.60
2022-12-15T21:43:34.550Z,12.60
2022-12-15T21:46:10.618Z,12.70
2022-12-15T21:48:57.111Z,12.70
2022-12-15T21:51:27.654Z,12.60
2022-12-15T21:53:55.671Z,12.60
2022-12-15T21:56:23.935Z,12.60
2022-12-15T21:58:54.817Z,12.60
2022-12-15T22:01:31.120Z,12.60
2022-12-15T22:04:04.573Z,12.60
2022-12-15T22:06:32.444Z,12.60
2022-12-15T22:09:00.244Z,12.60
2022-12-15T22:11:31.370Z,12.60
2022-12-15T22:14:03.227Z,12.60
2022-12-15T22:16:31.323Z,12.60
2022-12-15T22:19:00.089Z,12.60
2022-12-15T22:21:28.662Z,12.60
2022-12-15T22:23:57.094Z,12.60
2022-12-15T22:26:29.229Z,12.50
2022-12-15T22:29:01.461Z,12.50
2022-12-15T22:31:30.464Z,12.50
2022-12-15T22:33:58.660Z,12.50
2022-12-15T22:36:26.816Z,12.50
2022-12-15T22:38:54.745Z,12.60
2022-12-15T22:41:24.005Z,12.60
2022-12-15T22:43:54.168Z,12.60
2022-12-15T22:46:25.502Z,12.60
2022-12-15T22:48:54.823Z,12.60
2022-12-15T22:51:23.422Z,12.60
2022-12-15T22:53:51.847Z,12.60
2022-12-15T22:56:26.518Z,12.60
2022-12-15T22:59:03.330Z,12.70
2022-12-15T23:01:31.705Z,12.80
2022-12-15T23:04:00.341Z,12.80
2022-12-15T23:06:29.453Z,12.80
2022-12-15T23:08:57.524Z,12.80
2022-12-15T23:11:37.535Z,12.80
2022-12-15T23:14:12.271Z,12.90
2022-12-15T23:16:42.288Z,12.90
2022-12-15T23:19:23.912Z,13.00
2022-12-15T23:21:52.683Z,13.00
2022-12-15T23:24:20.826Z,13.00
2022-12-15T23:26:48.962Z,13.00
2022-12-15T23:29:17.692Z,13.00
2022-12-15T23:31:45.943Z,13.10
2022-12-15T23:34:14.745Z,13.10
2022-12-15T23:36:43.116Z,13.10
2022-12-15T23:39:11.211Z,13.20
2022-12-15T23:41:39.923Z,13.20
2022-12-15T23:44:08.220Z,13.20
2022-12-15T23:46:37.030Z,13.20
2022-12-15T23:49:06.949Z,13.20
2022-12-15T23:51:35.456Z,13.20
2022-12-15T23:54:04.550Z,13.30
2022-12-15T23:56:32.617Z,13.30
2022-12-15T23:59:00.958Z,13.30
